Time;durP1;ratioP1;P1;durP2;ratioP2;P2;SDS_P1;SDS_P2;PMS_P1;PMS_P2;Temp;Humidity;BMP_temperature;BMP_pressure;BME280_temperature;BME280_humidity;BME280_pressure;Samples;Min_cycle;Max_cycle;Signal;HPM_P1;HPM_P2
2023/08/21 00:02:30;;;;;;;4.80;2.30;;;;;18.70;101777.00;;;;10271659;28;20896;-76
2023/08/21 00:07:32;;;;;;;5.40;1.73;;;;;18.60;101779.00;;;;10255673;28;20219;-76
2023/08/21 00:12:33;;;;;;;6.38;1.88;;;;;18.60;101787.00;;;;10240924;28;20982;-77
2023/08/21 00:17:34;;;;;;;7.13;1.80;;;;;18.70;101786.00;;;;10245536;28;20204;-80
2023/08/21 00:22:36;;;;;;;9.98;2.40;;;;;18.80;101787.00;;;;10276926;28;20294;-81
2023/08/21 00:27:38;;;;;;;5.05;2.30;;;;;18.90;101787.00;;;;10257440;28;21733;-81
2023/08/21 00:32:39;;;;;;;5.88;2.50;;;;;18.90;101789.00;;;;10239599;28;20208;-81
2023/08/21 00:37:41;;;;;;;7.68;2.35;;;;;19.00;101790.00;;;;10256792;28;20211;-80
2023/08/21 00:42:43;;;;;;;8.57;2.03;;;;;19.00;101790.00;;;;10263177;28;21455;-80
2023/08/21 00:47:44;;;;;;;4.05;2.30;;;;;19.00;101792.00;;;;10257461;28;20229;-77
2023/08/21 00:52:46;;;;;;;5.55;1.98;;;;;19.00;101779.00;;;;10247786;28;20253;-77
2023/08/21 00:57:48;;;;;;;5.82;2.13;;;;;18.90;101790.00;;;;10266902;28;20258;-77
2023/08/21 01:02:49;;;;;;;10.52;2.20;;;;;18.90;101790.00;;;;10262075;28;20219;-77
2023/08/21 01:08:02;;;;;;;8.55;2.70;;;;;18.80;101770.00;;;;10250952;28;20231;-79
2023/08/21 01:13:09;;;;;;;6.00;2.10;;;;;18.70;101775.00;;;;10240098;28;20200;-78
2023/08/21 01:18:10;;;;;;;5.50;2.08;;;;;18.60;101784.00;;;;10249667;28;20246;-79
2023/08/21 01:23:38;;;;;;;8.27;1.77;;;;;18.40;101782.00;;;;10275493;28;20206;-80
2023/08/21 01:28:39;;;;;;;8.05;2.15;;;;;18.30;101786.00;;;;10268208;28;20223;-77
2023/08/21 01:33:46;;;;;;;5.40;2.53;;;;;18.20;101794.00;;;;10251628;28;20215;-81
2023/08/21 01:38:47;;;;;;;7.90;2.65;;;;;18.10;101792.00;;;;10256223;28;20566;-76
2023/08/21 01:43:49;;;;;;;9.32;2.53;;;;;18.20;101794.00;;;;10263506;28;20239;-76
2023/08/21 01:48:50;;;;;;;5.95;2.47;;;;;18.20;101794.00;;;;10263800;28;20255;-76
2023/08/21 01:53:52;;;;;;;8.85;2.60;;;;;18.20;101804.00;;;;10265139;28;20242;-80
2023/08/21 01:58:53;;;;;;;7.55;2.10;;;;;18.20;101796.00;;;;10249092;28;20207;-79
2023/08/21 02:03:55;;;;;;;6.65;2.42;;;;;18.20;101795.00;;;;10248802;28;20528;-77
2023/08/21 02:08:56;;;;;;;8.35;3.03;;;;;18.10;101786.00;;;;10262697;28;20227;-79
2023/08/21 02:13:57;;;;;;;9.52;2.78;;;;;18.00;101787.00;;;;10245189;28;20489;-76
2023/08/21 02:18:58;;;;;;;5.80;2.40;;;;;17.90;101784.00;;;;10229581;28;20238;-77
2023/08/21 02:24:00;;;;;;;8.23;2.88;;;;;17.90;101781.00;;;;10260542;28;20475;-76
2023/08/21 02:29:01;;;;;;;13.05;3.67;;;;;17.80;101790.00;;;;10226101;28;20460;-78
2023/08/21 02:34:02;;;;;;;12.05;3.25;;;;;17.70;101790.00;;;;10261728;28;20203;-78
2023/08/21 02:39:04;;;;;;;13.60;3.40;;;;;17.70;101788.00;;;;10259475;28;21501;-77
2023/08/21 02:44:05;;;;;;;7.95;2.60;;;;;17.60;101793.00;;;;10247261;28;20570;-77
2023/08/21 02:49:06;;;;;;;9.40;2.80;;;;;17.50;101791.00;;;;10242469;28;20319;-76
2023/08/21 02:54:08;;;;;;;6.47;2.90;;;;;17.50;101792.00;;;;10240594;28;20424;-76
2023/08/21 02:59:09;;;;;;;10.52;3.13;;;;;17.50;101792.00;;;;10244296;28;20802;-79
2023/08/21 03:04:11;;;;;;;6.82;2.30;;;;;17.50;101799.00;;;;10266423;28;20434;-79
2023/08/21 03:09:12;;;;;;;10.80;3.28;;;;;17.50;101799.00;;;;10253006;28;20227;-79
2023/08/21 03:14:13;;;;;;;10.45;3.00;;;;;17.50;101804.00;;;;10268115;28;20203;-77
2023/08/21 03:19:15;;;;;;;11.73;3.40;;;;;17.40;101797.00;;;;10228820;28;20323;-77
2023/08/21 03:24:16;;;;;;;9.38;2.50;;;;;17.40;101797.00;;;;10243531;28;20322;-76
2023/08/21 03:29:17;;;;;;;9.45;3.38;;;;;17.30;101786.00;;;;10243629;28;21093;-76
2023/08/21 03:34:18;;;;;;;13.55;3.40;;;;;17.30;101785.00;;;;10243860;28;20200;-78
2023/08/21 03:39:21;;;;;;;7.20;2.90;;;;;17.20;101781.00;;;;10242587;28;20203;-77
2023/08/21 03:44:23;;;;;;;8.32;2.97;;;;;17.10;101789.00;;;;10244094;28;20214;-76
2023/08/21 03:49:24;;;;;;;9.98;3.67;;;;;17.00;101789.00;;;;10260651;28;20273;-77
2023/08/21 03:54:26;;;;;;;14.15;3.70;;;;;17.00;101777.00;;;;10243539;28;20616;-77
2023/08/21 03:59:29;;;;;;;11.57;3.45;;;;;16.90;101785.00;;;;10264139;28;20253;-82
2023/08/21 04:04:30;;;;;;;10.80;3.40;;;;;17.00;101776.00;;;;10228849;28;20565;-76
2023/08/21 04:09:31;;;;;;;6.20;3.13;;;;;16.90;101784.00;;;;10243575;28;20234;-78
2023/08/21 04:14:33;;;;;;;8.63;3.50;;;;;16.90;101788.00;;;;10242945;28;20215;-77
2023/08/21 04:19:34;;;;;;;8.32;3.08;;;;;16.90;101789.00;;;;10232485;28;20494;-80
2023/08/21 04:24:36;;;;;;;7.18;3.08;;;;;16.80;101794.00;;;;10243707;28;20420;-76
2023/08/21 04:29:38;;;;;;;8.10;3.10;;;;;16.80;101792.00;;;;10226038;28;20231;-77
2023/08/21 04:34:40;;;;;;;10.75;3.25;;;;;16.70;101800.00;;;;10226278;28;21207;-76
2023/08/21 04:39:42;;;;;;;7.70;3.47;;;;;16.70;101795.00;;;;10258375;28;20606;-77
2023/08/21 04:44:44;;;;;;;7.47;3.50;;;;;16.70;101800.00;;;;10244081;28;20215;-76
2023/08/21 04:49:47;;;;;;;7.20;3.05;;;;;16.70;101808.00;;;;10239777;28;20230;-75
2023/08/21 04:54:49;;;;;;;11.70;3.28;;;;;16.80;101812.00;;;;10258201;28;20995;-77
2023/08/21 04:59:51;;;;;;;9.43;2.92;;;;;16.80;101810.00;;;;10243075;28;20215;-76
2023/08/21 05:04:54;;;;;;;12.52;3.70;;;;;16.90;101805.00;;;;10241602;28;21326;-77
2023/08/21 05:10:00;;;;;;;12.77;3.78;;;;;17.00;101798.00;;;;10227842;28;20234;-76
2023/08/21 05:15:04;;;;;;;7.30;3.80;;;;;17.10;101791.00;;;;10221942;28;21453;-76
2023/08/21 05:20:06;;;;;;;13.07;4.30;;;;;17.20;101806.00;;;;10240473;28;20291;-77
2023/08/21 05:25:08;;;;;;;12.23;3.95;;;;;17.40;101806.00;;;;10246211;28;20211;-81
2023/08/21 05:30:12;;;;;;;10.38;4.45;;;;;17.50;101809.00;;;;10246650;28;20231;-75
2023/08/21 05:35:13;;;;;;;13.98;4.40;;;;;17.70;101809.00;;;;10244090;28;20212;-76
2023/08/21 05:40:16;;;;;;;9.95;4.00;;;;;17.90;101812.00;;;;10247908;28;20206;-76
2023/08/21 05:45:17;;;;;;;13.55;4.10;;;;;18.00;101814.00;;;;10231432;28;20215;-76
2023/08/21 05:50:19;;;;;;;9.85;4.15;;;;;18.30;101828.00;;;;10246613;28;20239;-78
2023/08/21 05:55:21;;;;;;;10.77;4.40;;;;;18.50;101819.00;;;;10247611;28;20672;-76
2023/08/21 06:00:22;;;;;;;10.52;4.65;;;;;18.80;101824.00;;;;10261555;28;20267;-76
2023/08/21 06:05:23;;;;;;;11.13;4.25;;;;;19.20;101832.00;;;;10264978;28;20222;-76
2023/08/21 06:10:27;;;;;;;12.90;5.10;;;;;19.50;101830.00;;;;10246005;28;20219;-77
2023/08/21 06:15:28;;;;;;;10.73;4.95;;;;;19.90;101831.00;;;;10250735;28;20215;-77
2023/08/21 06:20:30;;;;;;;20.92;5.43;;;;;20.30;101830.00;;;;10251565;28;20241;-76
2023/08/21 06:25:33;;;;;;;10.68;4.50;;;;;20.80;101824.00;;;;10241223;28;21125;-81
2023/08/21 06:30:34;;;;;;;12.20;4.43;;;;;21.20;101822.00;;;;10262426;28;20315;-80
2023/08/21 06:35:37;;;;;;;12.95;3.90;;;;;21.60;101823.00;;;;10251281;28;20277;-77
2023/08/21 06:40:38;;;;;;;13.65;4.32;;;;;21.80;101821.00;;;;10235135;28;20973;-77
2023/08/21 06:45:41;;;;;;;9.85;3.80;;;;;21.90;101814.00;;;;10250044;28;20314;-76
2023/08/21 06:50:42;;;;;;;14.43;4.60;;;;;21.70;101822.00;;;;10248360;28;20232;-76
2023/08/21 06:55:47;;;;;;;13.50;4.07;;;;;21.80;101813.00;;;;10266914;28;20294;-76
2023/08/21 07:00:48;;;;;;;10.98;3.72;;;;;22.00;101823.00;;;;10231786;28;20212;-77
2023/08/21 07:05:59;;;;;;;12.00;4.18;;;;;22.50;101829.00;;;;10262026;28;20239;-79
2023/08/21 07:11:04;;;;;;;9.60;3.78;;;;;22.70;101818.00;;;;10258130;28;20281;-79
2023/08/21 07:16:06;;;;;;;7.22;3.38;;;;;22.80;101820.00;;;;10234149;28;20207;-77
2023/08/21 07:21:07;;;;;;;12.60;3.55;;;;;23.60;101815.00;;;;10250162;28;20322;-77
2023/08/21 07:26:23;;;;;;;11.50;3.45;;;;;23.90;101819.00;;;;10266021;28;20273;-76
2023/08/21 07:31:24;;;;;;;13.75;3.85;;;;;23.20;101825.00;;;;10240485;28;20681;-77
2023/08/21 07:36:42;;;;;;;7.90;3.20;;;;;23.00;101836.00;;;;10520719;27;20327;-78
2023/08/21 07:41:44;;;;;;;14.40;3.88;;;;;23.30;101836.00;;;;10477995;27;20318;-77
2023/08/21 07:46:45;;;;;;;7.80;3.40;;;;;23.70;101832.00;;;;10498155;27;20199;-79
2023/08/21 07:51:46;;;;;;;13.93;3.35;;;;;24.20;101842.00;;;;10447113;27;20239;-80
2023/08/21 07:56:48;;;;;;;8.02;3.15;;;;;24.60;101843.00;;;;10469556;27;20204;-80
2023/08/21 08:01:50;;;;;;;9.70;3.22;;;;;25.30;101842.00;;;;10471402;27;20619;-81
2023/08/21 08:06:51;;;;;;;13.60;3.42;;;;;25.80;101839.00;;;;10485840;27;20204;-82
2023/08/21 08:11:52;;;;;;;12.93;3.33;;;;;25.70;101848.00;;;;10469031;27;20633;-77
2023/08/21 08:16:54;;;;;;;9.43;3.50;;;;;25.00;101854.00;;;;10480139;27;20208;-79
2023/08/21 08:21:56;;;;;;;11.98;3.10;;;;;26.00;101861.00;;;;10473442;27;20889;-79
2023/08/21 08:26:57;;;;;;;15.57;3.15;;;;;25.90;101855.00;;;;10472044;27;20212;-82
2023/08/21 08:31:58;;;;;;;8.23;3.17;;;;;26.10;101853.00;;;;10474807;27;20512;-77
2023/08/21 08:37:00;;;;;;;11.68;2.80;;;;;26.50;101846.00;;;;10474163;27;20259;-78
2023/08/21 08:42:06;;;;;;;13.10;2.97;;;;;27.20;101849.00;;;;10473735;27;20208;-77
2023/08/21 08:47:08;;;;;;;11.55;3.17;;;;;27.40;101859.00;;;;10417523;27;20216;-78
2023/08/21 08:52:10;;;;;;;14.55;3.20;;;;;27.90;101861.00;;;;10430932;28;20224;-79
2023/08/21 08:57:11;;;;;;;10.23;3.20;;;;;28.10;101856.00;;;;10431991;27;20661;-79
2023/08/21 09:02:13;;;;;;;12.10;3.20;;;;;28.50;101846.00;;;;10430832;27;21126;-82
2023/08/21 09:07:18;;;;;;;9.98;2.90;;;;;28.80;101848.00;;;;10455589;27;20346;-80
2023/08/21 09:12:20;;;;;;;11.35;2.83;;;;;27.90;101843.00;;;;10455151;27;21172;-77
2023/08/21 09:17:23;;;;;;;8.25;2.45;;;;;28.50;101826.00;;;;10424341;27;20637;-76
2023/08/21 09:22:24;;;;;;;9.00;2.70;;;;;28.60;101834.00;;;;10411683;27;21080;-80
2023/08/21 09:27:26;;;;;;;4.40;1.35;;;;;28.80;101834.00;;;;10446295;27;20557;-82
2023/08/21 09:32:27;;;;;;;9.75;2.40;;;;;29.20;101833.00;;;;10454010;27;20224;-80
2023/08/21 09:37:29;;;;;;;6.38;2.63;;;;;29.60;101830.00;;;;10427043;27;20476;-78
2023/08/21 09:42:30;;;;;;;10.05;2.47;;;;;29.50;101829.00;;;;10442476;27;20209;-79
2023/08/21 09:47:33;;;;;;;8.63;2.13;;;;;29.70;101828.00;;;;10445633;27;20200;-77
2023/08/21 09:52:35;;;;;;;7.50;2.38;;;;;29.70;101824.00;;;;10438670;27;22022;-78
2023/08/21 09:57:58;;;;;;;4.68;1.70;;;;;30.30;101828.00;;;;10436941;27;20208;-82
2023/08/21 10:03:06;;;;;;;4.38;1.70;;;;;30.70;101827.00;;;;10439376;27;20234;-83
2023/08/21 10:08:08;;;;;;;2.85;1.30;;;;;30.90;101830.00;;;;10459258;28;20209;-83
2023/08/21 10:13:11;;;;;;;3.53;0.90;;;;;30.90;101827.00;;;;10436146;27;20281;-80
2023/08/21 10:18:26;;;;;;;3.20;0.95;;;;;30.90;101816.00;;;;10427080;27;20215;-78
2023/08/21 10:23:29;;;;;;;3.47;1.10;;;;;30.50;101832.00;;;;10443087;27;20238;-79
2023/08/21 10:28:50;;;;;;;4.63;0.85;;;;;30.80;101834.00;;;;10426610;28;20203;-82
2023/08/21 10:33:51;;;;;;;3.88;1.08;;;;;30.90;101822.00;;;;10426579;27;20228;-78
2023/08/21 10:38:59;;;;;;;2.28;0.90;;;;;31.50;101828.00;;;;10447197;27;20205;-78
2023/08/21 10:44:00;;;;;;;2.08;0.90;;;;;32.10;101823.00;;;;10444199;27;20271;-78
2023/08/21 10:49:02;;;;;;;6.00;1.55;;;;;31.20;101824.00;;;;10448419;27;20208;-81
2023/08/21 10:54:12;;;;;;;4.32;1.42;;;;;31.60;101823.00;;;;10391462;27;20213;-78
2023/08/21 10:59:14;;;;;;;4.68;1.00;;;;;31.60;101820.00;;;;10442027;27;20218;-79
2023/08/21 11:04:15;;;;;;;4.75;1.08;;;;;32.40;101827.00;;;;10443747;27;21461;-79
2023/08/21 11:09:16;;;;;;;6.82;1.35;;;;;33.30;101817.00;;;;10447929;27;20355;-81
2023/08/21 11:14:24;;;;;;;2.78;0.90;;;;;33.50;101809.00;;;;10429188;27;20229;-78
2023/08/21 11:19:26;;;;;;;1.63;0.88;;;;;33.10;101810.00;;;;10442899;27;20521;-80
2023/08/21 11:24:36;;;;;;;2.05;0.95;;;;;32.80;101811.00;;;;10444356;27;20887;-78
2023/08/21 11:29:49;;;;;;;3.33;1.05;;;;;32.90;101815.00;;;;10449106;27;21044;-79
2023/08/21 11:34:56;;;;;;;3.97;1.13;;;;;32.80;101815.00;;;;10444304;27;20970;-79
2023/08/21 11:39:58;;;;;;;2.40;1.20;;;;;32.70;101808.00;;;;10440564;27;20209;-78
2023/08/21 11:45:01;;;;;;;4.75;1.48;;;;;32.60;101798.00;;;;10422516;27;20904;-78
2023/08/21 11:50:08;;;;;;;5.55;1.50;;;;;31.40;101809.00;;;;10432841;28;20244;-81
2023/08/21 11:55:13;;;;;;;5.00;2.22;;;;;32.30;101807.00;;;;10455226;27;20350;-82
2023/08/21 12:00:18;;;;;;;6.00;1.67;;;;;33.30;101793.00;;;;10446026;27;21148;-78
2023/08/21 12:05:19;;;;;;;6.18;1.92;;;;;33.80;101793.00;;;;10421295;27;20239;-79
2023/08/21 12:10:29;;;;;;;3.47;2.00;;;;;33.50;101791.00;;;;10421447;27;20212;-78
2023/08/21 12:15:30;;;;;;;4.43;1.52;;;;;33.10;101789.00;;;;10443851;27;20590;-78
2023/08/21 12:20:32;;;;;;;7.72;2.17;;;;;33.00;101786.00;;;;10431160;27;20200;-77
2023/08/21 12:25:34;;;;;;;3.90;2.13;;;;;33.20;101786.00;;;;10439076;27;21349;-82
2023/08/21 12:30:35;;;;;;;7.32;1.95;;;;;33.30;101794.00;;;;10450602;27;20656;-81
2023/08/21 12:35:36;;;;;;;7.30;1.60;;;;;33.70;101785.00;;;;10454511;27;21673;-81
2023/08/21 12:40:38;;;;;;;6.65;1.73;;;;;32.80;101787.00;;;;10450198;27;20207;-80
2023/08/21 12:45:40;;;;;;;5.78;2.03;;;;;33.20;101780.00;;;;10445322;27;21545;-78
2023/08/21 12:50:41;;;;;;;4.78;1.45;;;;;32.80;101777.00;;;;10446617;27;20212;-78
2023/08/21 12:55:43;;;;;;;2.97;1.38;;;;;32.50;101778.00;;;;10452390;27;20334;-80
2023/08/21 13:00:44;;;;;;;6.38;1.77;;;;;32.00;101766.00;;;;10446793;27;20688;-80
2023/08/21 13:05:46;;;;;;;4.28;1.77;;;;;32.00;101772.00;;;;10442633;27;20290;-77
2023/08/21 13:10:47;;;;;;;4.03;1.60;;;;;31.60;101769.00;;;;10453828;27;20196;-77
2023/08/21 13:15:48;;;;;;;5.30;1.70;;;;;31.30;101770.00;;;;10448090;27;21081;-78
2023/08/21 13:20:50;;;;;;;5.20;1.50;;;;;30.90;101765.00;;;;10449194;27;20203;-78
2023/08/21 13:25:51;;;;;;;5.18;1.65;;;;;31.40;101759.00;;;;10428342;27;20204;-78
2023/08/21 13:30:55;;;;;;;5.93;1.73;;;;;32.00;101765.00;;;;10444204;27;20219;-78
2023/08/21 13:35:57;;;;;;;4.90;1.45;;;;;31.90;101757.00;;;;10443844;27;20720;-78
2023/08/21 13:40:58;;;;;;;5.28;1.48;;;;;31.30;101768.00;;;;10442340;27;20825;-77
2023/08/21 13:46:06;;;;;;;4.07;1.38;;;;;31.50;101769.00;;;;10440760;27;20283;-78
2023/08/21 13:51:07;;;;;;;5.95;1.95;;;;;30.80;101761.00;;;;10448930;27;20335;-78
2023/08/21 13:56:08;;;;;;;3.92;1.50;;;;;29.10;101769.00;;;;10436245;27;20355;-78
2023/08/21 14:01:10;;;;;;;5.07;1.65;;;;;29.30;101740.00;;;;10453445;27;20400;-81
2023/08/21 14:06:11;;;;;;;4.93;1.33;;;;;30.40;101732.00;;;;10446968;27;21280;-78
2023/08/21 14:11:13;;;;;;;6.63;1.60;;;;;30.50;101729.00;;;;10447094;27;20564;-78
2023/08/21 14:16:14;;;;;;;3.42;1.58;;;;;31.70;101723.00;;;;10427867;27;20227;-78
2023/08/21 14:21:15;;;;;;;4.45;1.35;;;;;32.60;101705.00;;;;10443955;27;20298;-80
2023/08/21 14:26:17;;;;;;;3.72;1.10;;;;;34.50;101689.00;;;;10443238;27;20207;-79
2023/08/21 14:31:18;;;;;;;2.40;1.20;;;;;33.10;101701.00;;;;10445057;27;21226;-77
2023/08/21 14:36:20;;;;;;;2.53;1.33;;;;;34.20;101685.00;;;;10443441;27;20224;-78
2023/08/21 14:41:21;;;;;;;1.83;0.98;;;;;36.00;101679.00;;;;10445371;27;20576;-79
2023/08/21 14:46:23;;;;;;;2.90;1.35;;;;;36.70;101672.00;;;;10440995;27;20205;-78
2023/08/21 14:51:43;;;;;;;3.90;1.40;;;;;36.90;101666.00;;;;10443592;27;20196;-76
2023/08/21 14:56:44;;;;;;;1.75;0.90;;;;;32.30;101696.00;;;;10441142;27;20215;-78
2023/08/21 15:01:46;;;;;;;4.05;1.10;;;;;29.10;101683.00;;;;10443210;27;20205;-80
2023/08/21 15:06:47;;;;;;;2.15;1.20;;;;;29.00;101675.00;;;;10446380;27;20211;-78
2023/08/21 15:11:49;;;;;;;2.92;1.10;;;;;28.30;101674.00;;;;10449689;27;20215;-78
2023/08/21 15:16:50;;;;;;;3.70;1.17;;;;;27.60;101668.00;;;;10424009;27;21022;-78
2023/08/21 15:21:53;;;;;;;1.05;0.82;;;;;27.20;101669.00;;;;10440798;27;21388;-78
2023/08/21 15:26:54;;;;;;;1.23;1.00;;;;;27.00;101663.00;;;;10450709;27;20217;-79
2023/08/21 15:31:55;;;;;;;3.30;0.90;;;;;26.80;101656.00;;;;10444139;27;20574;-77
2023/08/21 15:36:58;;;;;;;5.72;1.30;;;;;26.70;101648.00;;;;10420638;27;20896;-79
2023/08/21 15:41:59;;;;;;;8.32;1.40;;;;;26.70;101639.00;;;;10426407;27;20478;-77
2023/08/21 15:47:00;;;;;;;3.78;1.05;;;;;26.90;101633.00;;;;10434721;27;20263;-81
2023/08/21 15:52:22;;;;;;;3.40;1.30;;;;;26.80;101636.00;;;;10432457;27;20205;-79
2023/08/21 15:57:24;;;;;;;1.98;1.08;;;;;26.50;101633.00;;;;10447916;27;20903;-78
2023/08/21 16:02:26;;;;;;;2.55;0.82;;;;;26.30;101626.00;;;;10450425;27;20205;-79
2023/08/21 16:07:27;;;;;;;1.77;0.80;;;;;26.30;101623.00;;;;10443386;27;20207;-78
2023/08/21 16:12:29;;;;;;;2.33;1.10;;;;;26.20;101612.00;;;;10453773;27;20731;-78
2023/08/21 16:17:30;;;;;;;1.92;1.15;;;;;26.10;101605.00;;;;10415004;27;20746;-78
2023/08/21 16:22:32;;;;;;;1.63;0.90;;;;;26.10;101612.00;;;;10450851;27;20673;-77
2023/08/21 16:27:33;;;;;;;1.02;0.82;;;;;26.00;101602.00;;;;10452727;27;20681;-77
2023/08/21 16:32:35;;;;;;;1.92;0.63;;;;;25.90;101592.00;;;;10435710;27;20539;-77
2023/08/21 16:37:37;;;;;;;0.80;0.70;;;;;25.70;101589.00;;;;10456146;27;20193;-80
2023/08/21 16:42:39;;;;;;;2.28;1.20;;;;;25.70;101597.00;;;;10442100;27;20230;-77
2023/08/21 16:47:40;;;;;;;3.63;1.30;;;;;25.70;101597.00;;;;10450038;27;20550;-77
2023/08/21 16:52:42;;;;;;;1.95;1.10;;;;;25.70;101601.00;;;;10448525;27;20240;-78
2023/08/21 16:57:43;;;;;;;5.22;1.30;;;;;25.70;101591.00;;;;10454925;27;20922;-78
2023/08/21 17:02:45;;;;;;;2.28;1.15;;;;;25.60;101598.00;;;;10430921;27;20226;-78
2023/08/21 17:07:46;;;;;;;1.67;0.80;;;;;25.50;101592.00;;;;10447551;27;20201;-76
2023/08/21 17:12:47;;;;;;;3.00;1.10;;;;;25.50;101585.00;;;;10448740;27;20216;-77
2023/08/21 17:17:48;;;;;;;1.88;1.20;;;;;25.40;101592.00;;;;10414225;27;20260;-77
2023/08/21 17:22:50;;;;;;;2.72;1.08;;;;;25.40;101597.00;;;;10429316;27;20267;-81
2023/08/21 17:27:52;;;;;;;2.50;1.00;;;;;25.30;101594.00;;;;10447371;27;20934;-78
2023/08/21 17:32:54;;;;;;;3.55;0.80;;;;;25.20;101588.00;;;;10433185;27;20224;-80
2023/08/21 17:37:55;;;;;;;2.78;1.00;;;;;25.00;101592.00;;;;10458053;27;20355;-81
2023/08/21 17:42:56;;;;;;;2.85;0.90;;;;;24.90;101586.00;;;;10456086;27;21951;-77
2023/08/21 17:47:57;;;;;;;2.38;1.20;;;;;24.90;101590.00;;;;10447829;27;20228;-77
2023/08/21 17:53:02;;;;;;;5.55;1.10;;;;;24.80;101585.00;;;;10447024;27;20228;-77
2023/08/21 17:58:04;;;;;;;2.85;1.08;;;;;24.60;101582.00;;;;10429128;27;20641;-79
2023/08/21 18:03:06;;;;;;;3.38;1.13;;;;;24.50;101583.00;;;;10448086;27;20240;-77
2023/08/21 18:08:07;;;;;;;3.88;1.10;;;;;24.40;101589.00;;;;10450504;27;20987;-77
2023/08/21 18:13:08;;;;;;;2.90;1.23;;;;;24.20;101588.00;;;;10447637;27;20217;-77
2023/08/21 18:18:10;;;;;;;3.13;1.10;;;;;24.00;101590.00;;;;10449998;27;21804;-77
2023/08/21 18:23:11;;;;;;;2.15;1.20;;;;;23.70;101582.00;;;;10445443;27;20287;-77
2023/08/21 18:28:12;;;;;;;3.42;1.10;;;;;23.40;101585.00;;;;10448109;27;21481;-78
2023/08/21 18:33:14;;;;;;;2.25;1.30;;;;;23.10;101582.00;;;;10445353;27;20566;-77
2023/08/21 18:38:16;;;;;;;1.67;0.95;;;;;22.80;101586.00;;;;10432943;27;20967;-81
2023/08/21 18:43:20;;;;;;;3.33;1.38;;;;;22.50;101581.00;;;;10448175;27;20204;-82
2023/08/21 18:48:22;;;;;;;1.15;0.98;;;;;22.30;101582.00;;;;10445610;27;20203;-77
2023/08/21 18:53:23;;;;;;;3.42;1.27;;;;;22.00;101592.00;;;;10428752;27;20274;-79
2023/08/21 18:58:24;;;;;;;3.83;1.35;;;;;21.90;101600.00;;;;10436467;27;20199;-78
2023/08/21 19:03:26;;;;;;;3.00;1.23;;;;;21.70;101602.00;;;;10450999;27;20210;-76
2023/08/21 19:08:27;;;;;;;2.45;1.30;;;;;21.50;101607.00;;;;10450375;27;20967;-80
2023/08/21 19:13:28;;;;;;;3.38;1.60;;;;;21.40;101619.00;;;;10461627;27;20239;-80
2023/08/21 19:18:30;;;;;;;1.90;1.10;;;;;21.40;101626.00;;;;10438991;27;20322;-78
2023/08/21 19:23:31;;;;;;;5.07;1.95;;;;;21.30;101641.00;;;;10431030;27;20242;-77
2023/08/21 19:28:32;;;;;;;4.93;2.03;;;;;21.20;101639.00;;;;10423644;27;20467;-77
2023/08/21 19:33:34;;;;;;;10.48;3.10;;;;;21.20;101635.00;;;;10423049;27;21352;-77
2023/08/21 19:38:35;;;;;;;7.38;2.90;;;;;21.10;101651.00;;;;10425561;27;20199;-78
2023/08/21 19:43:36;;;;;;;8.73;3.10;;;;;21.10;101656.00;;;;10422913;27;20577;-76
2023/08/21 19:48:38;;;;;;;8.23;2.85;;;;;21.00;101658.00;;;;10443759;27;20224;-77
2023/08/21 19:53:39;;;;;;;6.38;3.35;;;;;20.90;101666.00;;;;10420933;27;20232;-76
2023/08/21 19:58:40;;;;;;;7.57;3.00;;;;;20.80;101666.00;;;;10444708;27;20244;-75
2023/08/21 20:03:42;;;;;;;12.23;3.78;;;;;20.70;101670.00;;;;10446195;27;20662;-77
2023/08/21 20:08:43;;;;;;;14.48;3.75;;;;;20.60;101673.00;;;;10451638;27;21268;-81
2023/08/21 20:13:45;;;;;;;9.73;3.72;;;;;20.50;101681.00;;;;10436355;27;20215;-82
2023/08/21 20:18:46;;;;;;;11.77;4.10;;;;;20.40;101672.00;;;;10434971;27;22006;-76
2023/08/21 20:23:48;;;;;;;8.90;4.03;;;;;20.30;101675.00;;;;10426331;27;20204;-77
2023/08/21 20:28:49;;;;;;;13.32;3.90;;;;;20.20;101666.00;;;;10422700;28;20948;-77
2023/08/21 20:33:50;;;;;;;7.95;4.03;;;;;20.00;101672.00;;;;10423319;27;21029;-78
2023/08/21 20:38:51;;;;;;;8.90;4.03;;;;;19.90;101674.00;;;;10439316;27;21488;-76
2023/08/21 20:43:52;;;;;;;5.90;3.67;;;;;19.70;101679.00;;;;10444963;27;20914;-77
2023/08/21 20:48:54;;;;;;;8.25;3.92;;;;;19.60;101668.00;;;;10447409;27;20211;-77
2023/08/21 20:53:56;;;;;;;8.48;3.60;;;;;19.40;101662.00;;;;10447915;27;20225;-79
2023/08/21 20:58:57;;;;;;;14.50;4.60;;;;;19.40;101657.00;;;;10447059;27;20219;-77
2023/08/21 21:03:59;;;;;;;9.32;4.38;;;;;19.30;101660.00;;;;10445773;27;20212;-77
2023/08/21 21:09:00;;;;;;;10.68;4.65;;;;;19.30;101648.00;;;;10455233;27;20235;-80
2023/08/21 21:14:02;;;;;;;9.82;3.90;;;;;19.30;101663.00;;;;10458954;27;20277;-81
2023/08/21 21:19:04;;;;;;;11.18;4.30;;;;;19.20;101668.00;;;;10454210;27;20420;-77
2023/08/21 21:24:05;;;;;;;7.57;5.00;;;;;19.10;101661.00;;;;10413892;27;20580;-77
2023/08/21 21:29:08;;;;;;;7.25;4.78;;;;;19.10;101677.00;;;;10454668;27;20215;-80
2023/08/21 21:34:09;;;;;;;11.00;5.07;;;;;19.00;101675.00;;;;10436860;27;20583;-78
2023/08/21 21:39:12;;;;;;;12.18;5.07;;;;;18.90;101675.00;;;;10436878;27;20208;-80
2023/08/21 21:44:14;;;;;;;10.07;4.53;;;;;18.90;101671.00;;;;10436622;28;20250;-78
2023/08/21 21:49:15;;;;;;;9.95;4.90;;;;;18.90;101677.00;;;;10446112;27;20240;-76
2023/08/21 21:54:16;;;;;;;10.63;4.38;;;;;18.80;101681.00;;;;10445939;27;20212;-78
2023/08/21 21:59:18;;;;;;;10.00;5.30;;;;;18.70;101695.00;;;;10445711;27;20766;-77
2023/08/21 22:04:19;;;;;;;6.60;4.43;;;;;18.70;101686.00;;;;10428183;27;20472;-78
2023/08/21 22:09:20;;;;;;;11.35;4.63;;;;;18.60;101688.00;;;;10442921;27;20204;-77
2023/08/21 22:14:22;;;;;;;9.13;4.75;;;;;18.60;101690.00;;;;10411135;27;20643;-76
2023/08/21 22:19:23;;;;;;;9.05;4.75;;;;;18.60;101686.00;;;;10430160;27;21348;-79
2023/08/21 22:24:25;;;;;;;7.30;4.90;;;;;18.50;101683.00;;;;10414912;28;21871;-80
2023/08/21 22:29:26;;;;;;;7.65;4.47;;;;;18.40;101682.00;;;;10449314;27;20208;-80
2023/08/21 22:34:27;;;;;;;9.05;5.22;;;;;18.30;101683.00;;;;10444616;27;20342;-76
2023/08/21 22:39:29;;;;;;;6.82;4.97;;;;;18.30;101689.00;;;;10448016;27;21010;-79
2023/08/21 22:44:30;;;;;;;10.27;4.53;;;;;18.20;101682.00;;;;10444300;27;20567;-77
2023/08/21 22:49:31;;;;;;;7.78;4.60;;;;;18.10;101685.00;;;;10442663;27;21236;-77
2023/08/21 22:54:33;;;;;;;6.90;4.78;;;;;18.10;101687.00;;;;10440655;27;20233;-78
2023/08/21 22:59:35;;;;;;;7.30;4.50;;;;;18.00;101693.00;;;;10425896;27;20275;-76
2023/08/21 23:04:36;;;;;;;13.50;4.80;;;;;17.90;101687.00;;;;10442875;27;20515;-77
2023/08/21 23:09:38;;;;;;;8.20;4.72;;;;;17.80;101687.00;;;;10423281;27;20214;-77
2023/08/21 23:14:39;;;;;;;11.00;5.07;;;;;17.70;101684.00;;;;10445042;27;20382;-78
2023/08/21 23:19:40;;;;;;;11.20;5.63;;;;;17.70;101692.00;;;;10425660;27;20196;-77
2023/08/21 23:24:42;;;;;;;9.55;5.70;;;;;17.60;101682.00;;;;10440756;27;20311;-76
2023/08/21 23:29:43;;;;;;;9.80;6.20;;;;;17.50;101677.00;;;;10410875;27;20224;-77
2023/08/21 23:34:44;;;;;;;17.67;7.28;;;;;17.40;101664.00;;;;10440276;27;20208;-75
2023/08/21 23:39:46;;;;;;;12.38;6.57;;;;;17.30;101658.00;;;;10406964;27;20301;-76
2023/08/21 23:44:47;;;;;;;13.38;7.32;;;;;17.30;101653.00;;;;10441968;27;20265;-77
2023/08/21 23:49:48;;;;;;;9.75;6.78;;;;;17.20;101651.00;;;;10441850;27;20224;-77
2023/08/21 23:54:50;;;;;;;13.77;7.38;;;;;17.20;101649.00;;;;10426789;27;20231;-80
2023/08/21 23:59:51;;;;;;;12.75;7.40;;;;;17.10;101648.00;;;;10443916;27;21520;-77
